createdAt,value
2022-08-09T00:01:48.379Z,18.27
2022-08-09T00:04:35.373Z,18.21
2022-08-09T00:07:07.632Z,18.32
2022-08-09T00:09:40.018Z,18.34
2022-08-09T00:12:09.281Z,18.27
2022-08-09T00:14:51.063Z,18.14
2022-08-09T00:18:06.204Z,18.24
2022-08-09T00:20:16.685Z,18.20
2022-08-09T00:22:47.206Z,18.04
2022-08-09T00:25:15.857Z,18.16
2022-08-09T00:27:52.009Z,17.99
2022-08-09T00:30:26.182Z,18.02
2022-08-09T00:32:56.952Z,17.66
2022-08-09T00:35:26.371Z,17.62
2022-08-09T00:37:58.060Z,17.56
2022-08-09T00:40:30.227Z,17.38
2022-08-09T00:44:15.598Z,17.26
2022-08-09T00:45:53.959Z,17.26
2022-08-09T00:48:24.149Z,17.09
2022-08-09T00:50:54.049Z,17.20
2022-08-09T00:53:24.018Z,17.08
2022-08-09T00:56:05.226Z,17.27
2022-08-09T00:58:38.989Z,17.12
2022-08-09T01:01:16.214Z,17.17
2022-08-09T01:03:57.029Z,17.02
2022-08-09T01:06:54.419Z,17.18
2022-08-09T01:09:35.872Z,17.01
2022-08-09T01:12:18.754Z,16.90
2022-08-09T01:15:01.641Z,17.15
2022-08-09T01:17:39.863Z,17.35
2022-08-09T01:20:14.866Z,16.93
2022-08-09T01:24:01.841Z,16.72
2022-08-09T01:26:46.176Z,16.85
2022-08-09T01:29:17.092Z,16.72
2022-08-09T01:32:31.324Z,16.64
2022-08-09T01:34:39.182Z,16.45
2022-08-09T01:37:13.685Z,16.45
2022-08-09T01:39:45.480Z,16.42
2022-08-09T01:42:17.168Z,16.34
2022-08-09T01:44:48.629Z,16.31
2022-08-09T01:47:18.170Z,16.62
2022-08-09T01:49:50.774Z,16.40
2022-08-09T01:52:21.507Z,16.25
2022-08-09T01:54:56.476Z,16.31
2022-08-09T01:57:30.278Z,16.58
2022-08-09T02:00:34.479Z,16.48
2022-08-09T02:03:00.751Z,16.16
2022-08-09T02:05:38.158Z,16.44
2022-08-09T02:08:40.609Z,16.30
2022-08-09T02:11:17.206Z,16.05
2022-08-09T02:14:06.223Z,15.96
2022-08-09T02:16:58.983Z,15.85
2022-08-09T02:19:34.849Z,15.85
2022-08-09T02:22:14.812Z,15.72
2022-08-09T02:24:51.980Z,15.73
2022-08-09T02:27:27.452Z,15.62
2022-08-09T02:30:15.610Z,15.79
2022-08-09T02:32:48.474Z,15.80
2022-08-09T02:36:01.108Z,15.34
2022-08-09T02:38:27.804Z,15.47
2022-08-09T02:41:03.062Z,15.56
2022-08-09T02:43:53.465Z,15.72
2022-08-09T02:46:28.593Z,15.67
2022-08-09T02:49:01.444Z,15.73
2022-08-09T02:51:37.258Z,15.75
2022-08-09T02:54:13.993Z,15.94
2022-08-09T02:56:51.163Z,15.86
2022-08-09T02:59:26.596Z,15.66
2022-08-09T03:02:12.002Z,15.58
2022-08-09T03:04:42.829Z,15.49
2022-08-09T03:07:14.192Z,15.45
2022-08-09T03:09:53.955Z,15.37
2022-08-09T03:12:27.055Z,15.47
2022-08-09T03:14:56.340Z,15.19
2022-08-09T03:17:27.689Z,14.83
2022-08-09T03:20:03.506Z,15.08
2022-08-09T03:22:41.909Z,15.07
2022-08-09T03:25:56.791Z,15.08
2022-08-09T03:28:05.156Z,15.04
2022-08-09T03:30:40.399Z,15.11
2022-08-09T03:33:18.685Z,15.21
2022-08-09T03:36:15.707Z,15.15
2022-08-09T03:38:41.909Z,15.11
2022-08-09T03:41:15.376Z,14.88
2022-08-09T03:44:03.496Z,15.01
2022-08-09T03:46:36.106Z,15.17
2022-08-09T03:49:08.957Z,14.76
2022-08-09T03:51:56.962Z,15.07
2022-08-09T03:54:32.132Z,14.72
2022-08-09T03:57:18.725Z,14.73
2022-08-09T03:59:54.211Z,14.63
2022-08-09T04:02:28.194Z,14.71
2022-08-09T04:05:06.398Z,14.82
2022-08-09T04:07:52.440Z,14.48
2022-08-09T04:10:29.315Z,14.63
2022-08-09T04:13:04.542Z,14.78
2022-08-09T04:16:17.884Z,14.76
2022-08-09T04:18:22.264Z,14.71
2022-08-09T04:20:55.416Z,14.66
2022-08-09T04:23:24.700Z,14.52
2022-08-09T04:25:54.780Z,14.80
2022-08-09T04:28:33.180Z,14.93
2022-08-09T04:31:07.881Z,14.95
2022-08-09T04:33:52.407Z,14.71
2022-08-09T04:36:29.322Z,14.74
2022-08-09T04:38:59.704Z,14.93
2022-08-09T04:41:32.801Z,15.03
2022-08-09T04:44:05.705Z,14.74
2022-08-09T04:46:57.421Z,14.50
2022-08-09T04:49:40.820Z,14.73
2022-08-09T04:52:18.466Z,14.78
2022-08-09T04:54:52.320Z,14.46
2022-08-09T04:57:24.325Z,14.65
2022-08-09T04:59:54.294Z,14.86
2022-08-09T05:02:23.801Z,14.97
2022-08-09T05:04:56.515Z,14.97
2022-08-09T05:07:27.680Z,15.08
2022-08-09T05:09:57.735Z,14.97
2022-08-09T05:12:31.166Z,15.22
2022-08-09T05:15:11.806Z,15.13
2022-08-09T05:18:38.008Z,15.39
2022-08-09T05:20:40.823Z,15.48
2022-08-09T05:23:54.845Z,15.75
2022-08-09T05:25:58.897Z,15.98
2022-08-09T05:28:27.431Z,16.36
2022-08-09T05:30:56.127Z,16.48
2022-08-09T05:33:33.194Z,16.56
2022-08-09T05:36:03.952Z,16.78
2022-08-09T05:38:34.014Z,17.20
2022-08-09T05:41:08.436Z,17.43
2022-08-09T05:43:45.176Z,18.69
2022-08-09T05:46:17.370Z,19.61
2022-08-09T05:48:58.540Z,19.97
2022-08-09T05:51:42.418Z,20.07
2022-08-09T05:54:17.922Z,20.60
2022-08-09T05:56:55.379Z,20.60
2022-08-09T05:59:25.284Z,20.27
2022-08-09T06:01:58.811Z,21.76
2022-08-09T06:04:34.879Z,21.92
2022-08-09T06:07:04.089Z,22.91
2022-08-09T06:09:54.468Z,23.40
2022-08-09T06:12:22.189Z,21.96
2022-08-09T06:14:54.950Z,21.07
2022-08-09T06:17:27.214Z,20.44
2022-08-09T06:20:08.954Z,19.63
2022-08-09T06:22:38.285Z,19.22
2022-08-09T06:25:12.427Z,18.66
2022-08-09T06:27:51.328Z,18.28
2022-08-09T06:30:20.888Z,18.32
2022-08-09T06:32:59.458Z,17.91
2022-08-09T06:35:56.002Z,18.27
2022-08-09T06:38:18.037Z,18.13
2022-08-09T06:40:49.011Z,17.84
2022-08-09T06:43:23.466Z,18.10
2022-08-09T06:46:06.493Z,18.36
2022-08-09T06:48:42.862Z,18.42
2022-08-09T06:51:12.672Z,18.32
2022-08-09T06:53:43.138Z,17.86
2022-08-09T06:56:13.484Z,18.26
2022-08-09T07:00:50.511Z,18.43
2022-08-09T07:01:35.782Z,18.49
2022-08-09T07:04:20.986Z,18.78
2022-08-09T07:06:53.118Z,18.81
2022-08-09T07:09:55.582Z,18.79
2022-08-09T07:12:13.784Z,18.95
2022-08-09T07:14:50.731Z,19.00
2022-08-09T07:17:22.145Z,19.36
2022-08-09T07:19:55.246Z,19.28
2022-08-09T07:22:34.413Z,19.25
2022-08-09T07:25:05.075Z,19.47
2022-08-09T07:27:42.642Z,19.46
2022-08-09T07:30:14.826Z,19.41
2022-08-09T07:32:43.848Z,19.48
2022-08-09T07:35:14.966Z,19.77
2022-08-09T07:37:46.166Z,20.00
2022-08-09T07:40:20.486Z,19.85
2022-08-09T07:42:57.053Z,20.03
2022-08-09T07:45:37.513Z,20.42
2022-08-09T07:48:28.605Z,20.12
2022-08-09T07:51:09.987Z,20.81
2022-08-09T07:54:07.390Z,20.85
2022-08-09T07:56:44.876Z,21.35
2022-08-09T07:59:33.916Z,21.54
2022-08-09T08:02:03.550Z,21.62
2022-08-09T08:04:34.089Z,21.73
2022-08-09T08:07:21.593Z,21.96
2022-08-09T08:09:54.940Z,22.29
2022-08-09T08:12:33.815Z,22.31
2022-08-09T08:15:03.861Z,22.25
2022-08-09T08:17:52.155Z,22.43
2022-08-09T08:20:29.520Z,22.52
2022-08-09T08:23:06.546Z,22.80
2022-08-09T08:25:53.932Z,22.91
2022-08-09T08:28:35.450Z,22.53
2022-08-09T08:31:13.835Z,22.60
2022-08-09T08:33:52.923Z,23.03
2022-08-09T08:36:28.624Z,23.06
2022-08-09T08:38:58.526Z,22.98
2022-08-09T08:41:50.343Z,23.08
2022-08-09T08:44:27.515Z,22.96
2022-08-09T08:47:04.993Z,23.14
2022-08-09T08:49:48.657Z,23.34
2022-08-09T08:52:52.818Z,23.35
2022-08-09T08:55:09.330Z,22.71
2022-08-09T08:57:38.731Z,22.80
2022-08-09T09:00:16.932Z,22.86
2022-08-09T09:02:55.402Z,23.21
2022-08-09T09:05:57.772Z,23.57
2022-08-09T09:08:30.515Z,23.66
2022-08-09T09:11:04.202Z,23.72
2022-08-09T09:13:55.903Z,23.83
2022-08-09T09:16:29.742Z,23.67
2022-08-09T09:19:36.903Z,23.80
2022-08-09T09:22:11.720Z,24.33
2022-08-09T09:24:44.906Z,24.38
2022-08-09T09:27:47.235Z,24.75
2022-08-09T09:30:27.504Z,24.87
2022-08-09T09:33:13.874Z,24.23
2022-08-09T09:36:01.455Z,24.63
2022-08-09T09:38:46.838Z,24.46
2022-08-09T09:41:48.674Z,24.46
2022-08-09T09:44:27.884Z,24.43
2022-08-09T09:47:08.986Z,24.56
2022-08-09T09:50:13.245Z,24.46
2022-08-09T09:52:37.297Z,24.13
2022-08-09T09:55:27.713Z,24.69
2022-08-09T09:58:15.647Z,25.20
2022-08-09T10:00:53.852Z,25.29
2022-08-09T10:03:57.630Z,25.11
2022-08-09T10:06:32.479Z,25.60
2022-08-09T10:09:11.768Z,25.53
2022-08-09T10:12:12.434Z,25.48
2022-08-09T10:14:48.792Z,25.86
2022-08-09T10:17:51.097Z,25.35
2022-08-09T10:20:36.061Z,26.07
2022-08-09T10:23:20.294Z,25.56
2022-08-09T10:26:05.972Z,25.69
2022-08-09T10:28:40.870Z,26.09
2022-08-09T10:34:10.761Z,25.86
2022-08-09T10:36:56.719Z,26.00
2022-08-09T10:39:28.694Z,26.24
2022-08-09T10:41:58.663Z,26.35
2022-08-09T10:44:30.368Z,26.55
2022-08-09T10:48:26.052Z,26.35
2022-08-09T10:50:52.109Z,26.30
2022-08-09T10:53:46.714Z,25.73
2022-08-09T10:56:25.610Z,26.55
2022-08-09T10:58:57.455Z,26.24
2022-08-09T11:03:13.673Z,26.67
2022-08-09T11:04:32.655Z,26.66
2022-08-09T11:07:57.869Z,26.05
2022-08-09T11:10:31.956Z,26.68
2022-08-09T11:13:53.693Z,26.87
2022-08-09T11:16:37.968Z,27.13
2022-08-09T11:19:10.649Z,26.26
2022-08-09T11:21:57.485Z,26.59
2022-08-09T11:25:04.546Z,26.79
2022-08-09T11:28:05.433Z,26.67
2022-08-09T11:30:36.520Z,27.11
2022-08-09T11:33:26.372Z,26.72
2022-08-09T11:35:58.666Z,26.92
2022-08-09T11:38:33.189Z,27.31
2022-08-09T11:41:38.180Z,26.84
2022-08-09T11:44:09.304Z,27.38
2022-08-09T11:46:59.600Z,28.12
2022-08-09T11:50:56.582Z,27.91
2022-08-09T11:53:55.059Z,28.13
2022-08-09T11:56:42.314Z,27.69
2022-08-09T11:59:30.715Z,27.92
2022-08-09T12:02:21.255Z,28.36
2022-08-09T12:04:58.733Z,28.97
2022-08-09T12:07:41.161Z,28.71
2022-08-09T12:10:14.167Z,27.43
2022-08-09T12:13:03.724Z,27.67
2022-08-09T12:15:52.221Z,27.56
2022-08-09T12:18:29.663Z,27.77
2022-08-09T12:21:02.674Z,27.54
2022-08-09T12:23:56.454Z,27.91
2022-08-09T12:26:25.806Z,27.61
2022-08-09T12:29:13.567Z,27.62
2022-08-09T12:32:02.490Z,27.88
2022-08-09T12:34:36.773Z,28.73
2022-08-09T12:37:21.983Z,28.04
2022-08-09T12:40:07.729Z,28.14
2022-08-09T12:42:37.855Z,28.79
2022-08-09T12:45:33.706Z,28.92
2022-08-09T12:47:58.801Z,28.94
2022-08-09T12:50:28.606Z,29.07
2022-08-09T12:53:17.607Z,28.89
2022-08-09T12:56:16.129Z,28.88
2022-08-09T12:58:42.551Z,28.23
2022-08-09T13:01:26.890Z,28.62
2022-08-09T13:04:02.299Z,28.42
2022-08-09T13:06:35.669Z,28.58
2022-08-09T13:09:13.585Z,28.53
2022-08-09T13:11:46.598Z,28.89
2022-08-09T13:14:41.026Z,29.09
2022-08-09T13:17:44.274Z,29.08
2022-08-09T13:20:17.486Z,28.25
2022-08-09T13:23:02.167Z,28.90
2022-08-09T13:25:52.910Z,29.13
2022-08-09T13:28:34.198Z,28.27
2022-08-09T13:32:13.314Z,28.93
2022-08-09T13:33:57.266Z,29.12
2022-08-09T13:36:40.754Z,29.07
2022-08-09T13:41:19.533Z,29.28
2022-08-09T13:42:03.223Z,28.52
2022-08-09T13:44:35.024Z,28.98
2022-08-09T13:47:26.616Z,28.70
2022-08-09T13:49:57.450Z,29.59
2022-08-09T13:52:30.163Z,29.50
2022-08-09T13:55:02.063Z,29.07
2022-08-09T13:57:40.334Z,29.03
2022-08-09T14:00:16.117Z,28.81
2022-08-09T14:03:16.894Z,28.32
2022-08-09T14:06:00.479Z,28.60
2022-08-09T14:08:26.927Z,28.60
2022-08-09T14:10:56.662Z,29.01
2022-08-09T14:13:28.206Z,28.74
2022-08-09T14:16:19.101Z,29.16
2022-08-09T14:18:51.800Z,29.89
2022-08-09T14:21:24.007Z,28.97
2022-08-09T14:23:57.130Z,29.88
2022-08-09T14:26:32.127Z,30.01
2022-08-09T14:29:07.824Z,30.14
2022-08-09T14:31:55.613Z,29.44
2022-08-09T14:34:27.341Z,29.55
2022-08-09T14:37:06.872Z,29.52
2022-08-09T14:39:45.373Z,29.32
2022-08-09T14:42:30.922Z,29.20
2022-08-09T14:46:54.364Z,29.72
2022-08-09T14:47:58.319Z,29.68
2022-08-09T14:50:31.547Z,29.25
2022-08-09T14:53:02.146Z,29.64
2022-08-09T14:55:32.553Z,29.90
2022-08-09T14:58:03.801Z,30.10
2022-08-09T15:00:35.208Z,30.20
2022-08-09T15:03:08.836Z,30.32
2022-08-09T15:05:40.362Z,30.39
2022-08-09T15:08:19.812Z,30.29
2022-08-09T15:11:00.628Z,30.20
2022-08-09T15:13:48.513Z,30.04
2022-08-09T15:16:22.583Z,29.10
2022-08-09T15:18:52.605Z,29.46
2022-08-09T15:22:01.866Z,29.15
2022-08-09T15:24:17.461Z,29.95
2022-08-09T15:26:47.841Z,29.26
2022-08-09T15:30:56.021Z,29.47
2022-08-09T15:32:29.450Z,29.43
2022-08-09T15:35:01.371Z,29.49
2022-08-09T15:37:38.155Z,29.40
2022-08-09T15:40:32.005Z,29.25
2022-08-09T15:43:01.865Z,29.48
2022-08-09T15:45:31.333Z,29.74
2022-08-09T15:48:29.466Z,29.09
2022-08-09T15:51:29.973Z,29.13
2022-08-09T15:54:03.155Z,29.91
2022-08-09T15:56:36.770Z,29.67
2022-08-09T15:59:05.873Z,29.45
2022-08-09T16:01:35.783Z,30.19
2022-08-09T16:04:04.760Z,30.10
2022-08-09T16:06:37.415Z,30.22
2022-08-09T16:09:06.920Z,29.62
2022-08-09T16:16:13.509Z,29.17
2022-08-09T16:18:45.657Z,29.16
2022-08-09T16:21:17.689Z,28.97
2022-08-09T16:24:01.704Z,28.88
2022-08-09T16:26:34.921Z,28.96
2022-08-09T16:29:10.419Z,28.90
2022-08-09T16:32:20.065Z,28.77
2022-08-09T16:34:54.845Z,29.35
2022-08-09T16:37:20.494Z,29.78
2022-08-09T16:40:12.908Z,29.61
2022-08-09T16:42:44.903Z,29.76
2022-08-09T16:45:17.448Z,29.66
2022-08-09T16:48:40.194Z,29.33
2022-08-09T16:50:35.400Z,29.25
2022-08-09T16:53:09.049Z,29.06
2022-08-09T16:55:59.625Z,28.61
2022-08-09T16:58:29.896Z,28.77
2022-08-09T17:01:05.211Z,28.12
2022-08-09T17:03:33.977Z,28.51
2022-08-09T17:06:08.006Z,28.39
2022-08-09T17:09:02.740Z,28.39
2022-08-09T17:11:42.466Z,28.00
2022-08-09T17:14:25.447Z,28.16
2022-08-09T17:17:00.125Z,28.13
2022-08-09T17:19:47.670Z,28.03
2022-08-09T17:22:24.229Z,28.28
2022-08-09T17:25:03.203Z,28.23
2022-08-09T17:27:38.165Z,27.81
2022-08-09T17:30:12.960Z,28.03
2022-08-09T17:32:44.400Z,27.78
2022-08-09T17:35:15.039Z,27.71
2022-08-09T17:38:10.131Z,27.69
2022-08-09T17:40:34.947Z,27.68
2022-08-09T17:43:32.819Z,27.72
2022-08-09T17:46:02.632Z,27.87
2022-08-09T17:48:33.001Z,27.63
2022-08-09T17:51:10.093Z,27.50
2022-08-09T17:53:51.868Z,27.26
2022-08-09T17:56:27.870Z,27.45
2022-08-09T17:59:01.052Z,27.51
2022-08-09T18:02:03.737Z,27.55
2022-08-09T18:04:22.459Z,27.52
2022-08-09T18:06:55.807Z,27.28
2022-08-09T18:09:40.498Z,27.20
2022-08-09T18:12:19.452Z,27.18
2022-08-09T18:14:54.635Z,27.02
2022-08-09T18:18:01.526Z,26.99
2022-08-09T18:20:59.346Z,26.76
2022-08-09T18:23:07.321Z,26.76
2022-08-09T18:25:53.062Z,26.75
2022-08-09T18:30:40.546Z,26.67
2022-08-09T18:31:32.185Z,26.54
2022-08-09T18:34:09.691Z,26.55
2022-08-09T18:36:38.761Z,26.52
2022-08-09T18:39:16.175Z,26.57
2022-08-09T18:41:52.588Z,26.57
2022-08-09T18:44:25.662Z,26.46
2022-08-09T18:47:05.424Z,26.52
2022-08-09T18:49:43.149Z,26.39
2022-08-09T18:52:24.624Z,26.26
2022-08-09T18:54:53.778Z,26.26
2022-08-09T18:57:23.876Z,26.17
2022-08-09T18:59:57.810Z,26.10
2022-08-09T19:02:32.481Z,26.01
2022-08-09T19:05:14.748Z,26.00
2022-08-09T19:07:59.410Z,25.77
2022-08-09T19:10:39.833Z,25.95
2022-08-09T19:13:22.615Z,25.73
2022-08-09T19:15:55.686Z,25.59
2022-08-09T19:18:33.710Z,25.55
2022-08-09T19:21:08.824Z,25.53
2022-08-09T19:24:33.356Z,25.57
2022-08-09T19:26:34.668Z,25.39
2022-08-09T19:29:09.778Z,25.47
2022-08-09T19:31:49.572Z,25.32
2022-08-09T19:34:24.620Z,25.02
2022-08-09T19:36:55.699Z,24.95
2022-08-09T19:39:28.880Z,24.94
2022-08-09T19:42:03.793Z,24.84
2022-08-09T19:44:33.118Z,24.82
2022-08-09T19:47:03.842Z,24.72
2022-08-09T19:50:09.569Z,24.60
2022-08-09T19:52:22.405Z,24.64
2022-08-09T19:54:53.753Z,24.40
2022-08-09T19:57:25.707Z,24.18
2022-08-09T19:59:59.366Z,24.37
2022-08-09T20:04:16.821Z,24.24
2022-08-09T20:05:30.117Z,24.26
2022-08-09T20:08:16.044Z,24.26
2022-08-09T20:10:53.804Z,24.30
2022-08-09T20:13:22.202Z,24.22
2022-08-09T20:16:32.902Z,24.27
2022-08-09T20:19:03.683Z,24.18
2022-08-09T20:21:54.854Z,24.26
2022-08-09T20:24:29.913Z,24.10
2022-08-09T20:27:08.060Z,24.37
2022-08-09T20:29:39.361Z,24.27
2022-08-09T20:32:30.153Z,24.27
2022-08-09T20:34:58.252Z,24.31
2022-08-09T20:38:18.936Z,24.38
2022-08-09T20:40:26.296Z,24.38
2022-08-09T20:42:59.895Z,24.13
2022-08-09T20:46:00.402Z,24.16
2022-08-09T20:48:31.712Z,24.29
2022-08-09T20:51:03.137Z,24.26
2022-08-09T20:53:36.992Z,24.19
2022-08-09T20:56:20.311Z,24.19
2022-08-09T20:58:58.687Z,23.85
2022-08-09T21:01:34.113Z,23.89
2022-08-09T21:05:51.204Z,23.79
2022-08-09T21:07:11.982Z,23.83
2022-08-09T21:09:45.813Z,23.89
2022-08-09T21:14:46.162Z,23.69
2022-08-09T21:18:21.808Z,23.49
2022-08-09T21:20:23.008Z,23.41
2022-08-09T21:22:55.569Z,23.40
2022-08-09T21:25:44.310Z,23.39
2022-08-09T21:28:35.075Z,23.43
2022-08-09T21:31:16.621Z,23.21
2022-08-09T21:33:50.788Z,23.27
2022-08-09T21:36:28.703Z,23.33
2022-08-09T21:38:58.817Z,23.20
2022-08-09T21:42:04.188Z,23.21
2022-08-09T21:44:33.867Z,22.97
2022-08-09T21:47:05.721Z,23.13
2022-08-09T21:49:39.589Z,23.02
2022-08-09T21:52:14.690Z,22.77
2022-08-09T21:54:50.513Z,22.76
2022-08-09T21:57:25.449Z,22.29
2022-08-09T22:00:15.001Z,22.60
2022-08-09T22:02:44.094Z,22.61
2022-08-09T22:05:23.603Z,22.33
2022-08-09T22:07:54.241Z,22.17
2022-08-09T22:10:24.093Z,22.22
2022-08-09T22:12:54.090Z,21.98
2022-08-09T22:15:23.497Z,21.74
2022-08-09T22:18:04.071Z,21.73
2022-08-09T22:20:32.482Z,21.48
2022-08-09T22:23:02.268Z,21.65
2022-08-09T22:26:07.033Z,21.77
2022-08-09T22:28:32.660Z,21.71
2022-08-09T22:31:02.482Z,21.36
2022-08-09T22:33:42.616Z,21.55
2022-08-09T22:36:19.259Z,21.40
2022-08-09T22:38:48.783Z,21.08
2022-08-09T22:41:17.605Z,21.29
2022-08-09T22:44:03.443Z,21.31
2022-08-09T22:48:18.731Z,21.28
2022-08-09T22:49:22.664Z,21.27
2022-08-09T22:51:57.494Z,21.20
2022-08-09T22:54:27.515Z,21.04
2022-08-09T22:56:58.653Z,21.21
2022-08-09T22:59:58.468Z,21.17
2022-08-09T23:02:20.370Z,20.80
2022-08-09T23:04:53.322Z,20.50
2022-08-09T23:08:22.665Z,20.57
2022-08-09T23:10:30.938Z,20.63
2022-08-09T23:13:00.227Z,20.34
2022-08-09T23:15:30.914Z,20.33
2022-08-09T23:17:59.472Z,20.56
2022-08-09T23:20:28.760Z,20.56
2022-08-09T23:22:57.188Z,20.47
2022-08-09T23:25:25.672Z,20.51
2022-08-09T23:27:58.417Z,20.49
2022-08-09T23:30:51.370Z,20.42
2022-08-09T23:33:20.733Z,20.56
2022-08-09T23:36:07.120Z,20.57
2022-08-09T23:38:48.997Z,20.49
2022-08-09T23:41:27.434Z,20.34
2022-08-09T23:43:59.213Z,20.32
2022-08-09T23:46:30.437Z,20.43
2022-08-09T23:48:59.163Z,20.32
2022-08-09T23:51:27.889Z,20.38
2022-08-09T23:54:02.952Z,20.37
2022-08-09T23:56:52.145Z,20.33
2022-08-09T23:59:21.526Z,20.37
